sensor_id;sensor_type;location;lat;lon;timestamp;temperature;humidity
10010;DHT22;5044;48.652;9.250;2022-12-29T00:01:20;5.00;99.90
10010;DHT22;5044;48.652;9.250;2022-12-29T00:03:48;5.00;99.90
10010;DHT22;5044;48.652;9.250;2022-12-29T00:06:15;5.10;99.90
10010;DHT22;5044;48.652;9.250;2022-12-29T00:08:42;5.10;99.90
10010;DHT22;5044;48.652;9.250;2022-12-29T00:11:11;5.00;99.90
10010;DHT22;5044;48.652;9.250;2022-12-29T00:13:53;5.40;99.90
10010;DHT22;5044;48.652;9.250;2022-12-29T00:16:42;5.30;99.90
10010;DHT22;5044;48.652;9.250;2022-12-29T00:23:08;5.20;99.90
10010;DHT22;5044;48.652;9.250;2022-12-29T00:25:54;5.30;99.90
10010;DHT22;5044;48.652;9.250;2022-12-29T00:28:40;5.30;99.90
10010;DHT22;5044;48.652;9.250;2022-12-29T00:31:25;5.40;99.90
10010;DHT22;5044;48.652;9.250;2022-12-29T00:34:11;5.40;99.90
10010;DHT22;5044;48.652;9.250;2022-12-29T00:36:56;5.40;99.90
10010;DHT22;5044;48.652;9.250;2022-12-29T00:39:32;5.40;99.90
10010;DHT22;5044;48.652;9.250;2022-12-29T00:42:54;5.40;99.90
10010;DHT22;5044;48.652;9.250;2022-12-29T00:46:00;5.40;99.90
10010;DHT22;5044;48.652;9.250;2022-12-29T00:49:16;5.40;99.90
10010;DHT22;5044;48.652;9.250;2022-12-29T00:52:15;5.50;99.90
10010;DHT22;5044;48.652;9.250;2022-12-29T00:57:48;5.60;99.90
10010;DHT22;5044;48.652;9.250;2022-12-29T01:00:15;5.90;99.90
10010;DHT22;5044;48.652;9.250;2022-12-29T01:08:14;5.70;99.90
10010;DHT22;5044;48.652;9.250;2022-12-29T01:11:01;5.60;99.90
10010;DHT22;5044;48.652;9.250;2022-12-29T01:13:38;5.60;99.90
10010;DHT22;5044;48.652;9.250;2022-12-29T01:16:25;5.40;99.90
10010;DHT22;5044;48.652;9.250;2022-12-29T01:19:05;6.00;99.90
10010;DHT22;5044;48.652;9.250;2022-12-29T01:21:43;6.00;99.90
10010;DHT22;5044;48.652;9.250;2022-12-29T01:24:24;5.80;99.90
10010;DHT22;5044;48.652;9.250;2022-12-29T01:26:57;6.10;99.90
10010;DHT22;5044;48.652;9.250;2022-12-29T01:29:29;5.80;99.90
10010;DHT22;5044;48.652;9.250;2022-12-29T01:32:00;5.80;99.90
10010;DHT22;5044;48.652;9.250;2022-12-29T01:34:29;5.80;99.90
10010;DHT22;5044;48.652;9.250;2022-12-29T01:37:01;6.40;99.90
10010;DHT22;5044;48.652;9.250;2022-12-29T01:39:38;5.70;99.90
10010;DHT22;5044;48.652;9.250;2022-12-29T01:42:25;5.90;99.90
10010;DHT22;5044;48.652;9.250;2022-12-29T01:45:09;5.90;99.90
10010;DHT22;5044;48.652;9.250;2022-12-29T01:47:44;6.00;99.90
10010;DHT22;5044;48.652;9.250;2022-12-29T01:50:21;6.00;99.90
10010;DHT22;5044;48.652;9.250;2022-12-29T01:53:08;6.00;99.90
10010;DHT22;5044;48.652;9.250;2022-12-29T01:56:17;6.40;99.90
10010;DHT22;5044;48.652;9.250;2022-12-29T01:58:55;5.80;99.90
10010;DHT22;5044;48.652;9.250;2022-12-29T02:01:41;5.70;99.90
10010;DHT22;5044;48.652;9.250;2022-12-29T02:04:30;6.60;99.90
10010;DHT22;5044;48.652;9.250;2022-12-29T02:07:14;6.20;99.90
10010;DHT22;5044;48.652;9.250;2022-12-29T02:09:51;6.40;99.90
10010;DHT22;5044;48.652;9.250;2022-12-29T02:12:40;6.30;99.90
10010;DHT22;5044;48.652;9.250;2022-12-29T02:15:18;6.30;99.90
10010;DHT22;5044;48.652;9.250;2022-12-29T02:18:18;6.70;99.90
10010;DHT22;5044;48.652;9.250;2022-12-29T02:24:44;6.40;99.90
10010;DHT22;5044;48.652;9.250;2022-12-29T02:27:40;7.10;99.90
10010;DHT22;5044;48.652;9.250;2022-12-29T02:30:45;6.40;99.90
10010;DHT22;5044;48.652;9.250;2022-12-29T02:33:36;6.50;99.90
10010;DHT22;5044;48.652;9.250;2022-12-29T02:36:14;6.60;99.90
10010;DHT22;5044;48.652;9.250;2022-12-29T02:39:18;6.70;99.90
10010;DHT22;5044;48.652;9.250;2022-12-29T02:42:01;6.60;99.90
10010;DHT22;5044;48.652;9.250;2022-12-29T02:44:39;6.70;99.90
10010;DHT22;5044;48.652;9.250;2022-12-29T02:47:21;6.90;99.90
10010;DHT22;5044;48.652;9.250;2022-12-29T02:49:57;7.10;99.90
10010;DHT22;5044;48.652;9.250;2022-12-29T02:52:43;6.90;99.90
10010;DHT22;5044;48.652;9.250;2022-12-29T02:55:31;7.10;99.90
10010;DHT22;5044;48.652;9.250;2022-12-29T02:58:23;7.10;99.90
10010;DHT22;5044;48.652;9.250;2022-12-29T03:01:07;7.20;99.90
10010;DHT22;5044;48.652;9.250;2022-12-29T03:04:02;7.10;99.90
10010;DHT22;5044;48.652;9.250;2022-12-29T03:07:00;7.40;99.90
10010;DHT22;5044;48.652;9.250;2022-12-29T03:09:47;6.40;99.90
10010;DHT22;5044;48.652;9.250;2022-12-29T03:12:30;7.20;99.90
10010;DHT22;5044;48.652;9.250;2022-12-29T03:15:20;7.20;99.90
10010;DHT22;5044;48.652;9.250;2022-12-29T03:18:09;7.30;99.90
10010;DHT22;5044;48.652;9.250;2022-12-29T03:20:52;7.80;99.90
10010;DHT22;5044;48.652;9.250;2022-12-29T03:23:24;7.20;99.90
10010;DHT22;5044;48.652;9.250;2022-12-29T03:26:12;7.40;99.90
10010;DHT22;5044;48.652;9.250;2022-12-29T03:28:50;7.40;99.90
10010;DHT22;5044;48.652;9.250;2022-12-29T03:31:29;7.20;99.90
10010;DHT22;5044;48.652;9.250;2022-12-29T03:34:11;7.40;99.90
10010;DHT22;5044;48.652;9.250;2022-12-29T03:39:54;7.80;99.90
10010;DHT22;5044;48.652;9.250;2022-12-29T03:42:34;7.20;99.90
10010;DHT22;5044;48.652;9.250;2022-12-29T03:45:10;8.00;99.90
10010;DHT22;5044;48.652;9.250;2022-12-29T03:47:52;7.60;99.90
10010;DHT22;5044;48.652;9.250;2022-12-29T03:50:34;7.70;99.90
10010;DHT22;5044;48.652;9.250;2022-12-29T03:53:27;7.80;99.90
10010;DHT22;5044;48.652;9.250;2022-12-29T03:56:03;7.80;99.90
10010;DHT22;5044;48.652;9.250;2022-12-29T03:58:37;8.00;99.90
10010;DHT22;5044;48.652;9.250;2022-12-29T04:01:13;8.00;99.90
10010;DHT22;5044;48.652;9.250;2022-12-29T04:03:43;7.90;99.90
10010;DHT22;5044;48.652;9.250;2022-12-29T04:06:18;7.90;99.90
10010;DHT22;5044;48.652;9.250;2022-12-29T04:09:03;7.90;99.90
10010;DHT22;5044;48.652;9.250;2022-12-29T04:11:35;7.50;99.90
10010;DHT22;5044;48.652;9.250;2022-12-29T04:14:18;7.70;99.90
10010;DHT22;5044;48.652;9.250;2022-12-29T04:16:48;8.00;99.90
10010;DHT22;5044;48.652;9.250;2022-12-29T04:19:21;8.00;99.90
10010;DHT22;5044;48.652;9.250;2022-12-29T04:21:54;8.10;99.90
10010;DHT22;5044;48.652;9.250;2022-12-29T04:24:34;8.10;99.90
10010;DHT22;5044;48.652;9.250;2022-12-29T04:27:19;8.00;99.90
10010;DHT22;5044;48.652;9.250;2022-12-29T04:29:53;7.90;99.90
10010;DHT22;5044;48.652;9.250;2022-12-29T04:32:23;8.10;99.90
10010;DHT22;5044;48.652;9.250;2022-12-29T04:34:59;8.30;99.90
10010;DHT22;5044;48.652;9.250;2022-12-29T04:37:34;8.20;99.90
10010;DHT22;5044;48.652;9.250;2022-12-29T04:40:13;8.00;99.90
10010;DHT22;5044;48.652;9.250;2022-12-29T04:42:45;8.00;99.90
10010;DHT22;5044;48.652;9.250;2022-12-29T04:45:24;7.90;99.90
10010;DHT22;5044;48.652;9.250;2022-12-29T04:47:57;7.80;99.90
10010;DHT22;5044;48.652;9.250;2022-12-29T04:50:40;7.70;99.90
10010;DHT22;5044;48.652;9.250;2022-12-29T04:53:19;7.80;99.90
10010;DHT22;5044;48.652;9.250;2022-12-29T04:55:58;7.50;99.90
10010;DHT22;5044;48.652;9.250;2022-12-29T04:58:32;7.60;99.90
10010;DHT22;5044;48.652;9.250;2022-12-29T05:01:03;7.50;99.90
10010;DHT22;5044;48.652;9.250;2022-12-29T05:03:40;7.50;99.90
10010;DHT22;5044;48.652;9.250;2022-12-29T05:06:09;7.60;99.90
10010;DHT22;5044;48.652;9.250;2022-12-29T05:08:40;7.30;99.90
10010;DHT22;5044;48.652;9.250;2022-12-29T05:11:15;7.50;99.90
10010;DHT22;5044;48.652;9.250;2022-12-29T05:13:49;7.30;99.90
10010;DHT22;5044;48.652;9.250;2022-12-29T05:16:23;7.40;99.90
10010;DHT22;5044;48.652;9.250;2022-12-29T05:18:54;7.20;99.90
10010;DHT22;5044;48.652;9.250;2022-12-29T05:21:26;7.30;99.90
10010;DHT22;5044;48.652;9.250;2022-12-29T05:24:00;7.30;99.90
10010;DHT22;5044;48.652;9.250;2022-12-29T05:26:32;7.20;99.90
10010;DHT22;5044;48.652;9.250;2022-12-29T05:29:08;7.20;99.90
10010;DHT22;5044;48.652;9.250;2022-12-29T05:31:42;6.90;99.90
10010;DHT22;5044;48.652;9.250;2022-12-29T05:34:31;7.20;99.90
10010;DHT22;5044;48.652;9.250;2022-12-29T05:37:04;7.10;99.90
10010;DHT22;5044;48.652;9.250;2022-12-29T05:39:41;7.30;99.90
10010;DHT22;5044;48.652;9.250;2022-12-29T05:42:19;7.10;99.90
10010;DHT22;5044;48.652;9.250;2022-12-29T05:45:00;7.30;99.90
10010;DHT22;5044;48.652;9.250;2022-12-29T05:47:36;7.10;99.90
10010;DHT22;5044;48.652;9.250;2022-12-29T05:53:10;7.50;99.90
10010;DHT22;5044;48.652;9.250;2022-12-29T05:55:58;7.30;99.90
10010;DHT22;5044;48.652;9.250;2022-12-29T05:58:42;7.20;99.90
10010;DHT22;5044;48.652;9.250;2022-12-29T06:01:13;7.50;99.90
10010;DHT22;5044;48.652;9.250;2022-12-29T06:03:40;7.70;99.90
10010;DHT22;5044;48.652;9.250;2022-12-29T06:06:07;7.70;99.90
10010;DHT22;5044;48.652;9.250;2022-12-29T06:08:34;7.40;99.90
10010;DHT22;5044;48.652;9.250;2022-12-29T06:11:01;7.30;99.90
10010;DHT22;5044;48.652;9.250;2022-12-29T06:16:11;7.40;99.90
10010;DHT22;5044;48.652;9.250;2022-12-29T06:18:42;7.40;99.90
10010;DHT22;5044;48.652;9.250;2022-12-29T06:21:24;7.40;99.90
10010;DHT22;5044;48.652;9.250;2022-12-29T06:23:53;7.50;99.90
10010;DHT22;5044;48.652;9.250;2022-12-29T06:26:34;7.80;99.90
10010;DHT22;5044;48.652;9.250;2022-12-29T06:29:02;7.70;99.90
10010;DHT22;5044;48.652;9.250;2022-12-29T06:31:49;7.60;99.90
10010;DHT22;5044;48.652;9.250;2022-12-29T06:34:23;8.00;99.90
10010;DHT22;5044;48.652;9.250;2022-12-29T06:40:11;7.70;99.90
10010;DHT22;5044;48.652;9.250;2022-12-29T06:42:56;7.90;99.90
10010;DHT22;5044;48.652;9.250;2022-12-29T06:45:24;8.00;99.90
10010;DHT22;5044;48.652;9.250;2022-12-29T06:47:53;8.00;99.90
10010;DHT22;5044;48.652;9.250;2022-12-29T06:50:20;8.00;99.90
10010;DHT22;5044;48.652;9.250;2022-12-29T06:52:47;8.00;99.90
10010;DHT22;5044;48.652;9.250;2022-12-29T06:55:14;8.10;99.90
10010;DHT22;5044;48.652;9.250;2022-12-29T06:57:42;8.20;99.90
10010;DHT22;5044;48.652;9.250;2022-12-29T07:00:09;8.10;99.90
10010;DHT22;5044;48.652;9.250;2022-12-29T07:02:36;8.10;99.90
10010;DHT22;5044;48.652;9.250;2022-12-29T07:05:05;8.10;99.90
10010;DHT22;5044;48.652;9.250;2022-12-29T07:07:33;8.20;99.90
10010;DHT22;5044;48.652;9.250;2022-12-29T07:09:59;8.10;99.90
10010;DHT22;5044;48.652;9.250;2022-12-29T07:12:27;8.00;99.90
10010;DHT22;5044;48.652;9.250;2022-12-29T07:14:54;8.00;99.90
10010;DHT22;5044;48.652;9.250;2022-12-29T07:17:21;7.90;99.90
10010;DHT22;5044;48.652;9.250;2022-12-29T07:19:48;8.00;99.90
10010;DHT22;5044;48.652;9.250;2022-12-29T07:22:16;8.00;99.90
10010;DHT22;5044;48.652;9.250;2022-12-29T07:24:45;8.00;99.90
10010;DHT22;5044;48.652;9.250;2022-12-29T07:27:11;8.00;99.90
10010;DHT22;5044;48.652;9.250;2022-12-29T07:29:38;8.10;99.90
10010;DHT22;5044;48.652;9.250;2022-12-29T07:32:05;8.10;99.90
10010;DHT22;5044;48.652;9.250;2022-12-29T07:34:43;8.10;99.90
10010;DHT22;5044;48.652;9.250;2022-12-29T07:37:12;8.20;99.90
10010;DHT22;5044;48.652;9.250;2022-12-29T07:39:42;8.20;99.90
10010;DHT22;5044;48.652;9.250;2022-12-29T07:42:09;8.20;99.90
10010;DHT22;5044;48.652;9.250;2022-12-29T07:44:36;8.20;99.90
10010;DHT22;5044;48.652;9.250;2022-12-29T07:47:03;8.40;99.90
10010;DHT22;5044;48.652;9.250;2022-12-29T07:49:30;8.20;99.90
10010;DHT22;5044;48.652;9.250;2022-12-29T07:51:58;8.20;99.90
10010;DHT22;5044;48.652;9.250;2022-12-29T07:54:25;8.20;99.90
10010;DHT22;5044;48.652;9.250;2022-12-29T07:56:53;8.20;99.90
10010;DHT22;5044;48.652;9.250;2022-12-29T07:59:21;8.20;99.90
10010;DHT22;5044;48.652;9.250;2022-12-29T08:01:48;8.20;99.90
10010;DHT22;5044;48.652;9.250;2022-12-29T08:04:15;8.20;99.90
10010;DHT22;5044;48.652;9.250;2022-12-29T08:06:42;8.20;99.90
10010;DHT22;5044;48.652;9.250;2022-12-29T08:09:10;8.20;99.90
10010;DHT22;5044;48.652;9.250;2022-12-29T08:11:37;8.30;99.90
10010;DHT22;5044;48.652;9.250;2022-12-29T08:14:07;8.30;99.90
10010;DHT22;5044;48.652;9.250;2022-12-29T08:16:34;8.40;99.90
10010;DHT22;5044;48.652;9.250;2022-12-29T08:19:02;8.40;99.90
10010;DHT22;5044;48.652;9.250;2022-12-29T08:21:32;8.50;99.90
10010;DHT22;5044;48.652;9.250;2022-12-29T08:24:00;8.50;99.90
10010;DHT22;5044;48.652;9.250;2022-12-29T08:26:35;8.50;99.90
10010;DHT22;5044;48.652;9.250;2022-12-29T08:29:09;8.60;99.90
10010;DHT22;5044;48.652;9.250;2022-12-29T08:31:41;8.70;99.90
10010;DHT22;5044;48.652;9.250;2022-12-29T08:34:10;8.70;99.90
10010;DHT22;5044;48.652;9.250;2022-12-29T08:36:39;8.80;99.90
10010;DHT22;5044;48.652;9.250;2022-12-29T08:39:50;9.00;99.90
10010;DHT22;5044;48.652;9.250;2022-12-29T08:42:32;9.00;99.90
10010;DHT22;5044;48.652;9.250;2022-12-29T08:45:04;9.00;99.90
10010;DHT22;5044;48.652;9.250;2022-12-29T08:47:37;9.10;99.90
10010;DHT22;5044;48.652;9.250;2022-12-29T08:50:18;9.00;99.90
10010;DHT22;5044;48.652;9.250;2022-12-29T08:52:57;9.60;99.90
10010;DHT22;5044;48.652;9.250;2022-12-29T08:55:55;9.10;99.90
10010;DHT22;5044;48.652;9.250;2022-12-29T08:58:41;9.20;99.90
10010;DHT22;5044;48.652;9.250;2022-12-29T09:01:46;9.20;99.90
10010;DHT22;5044;48.652;9.250;2022-12-29T09:04:27;9.20;99.90
10010;DHT22;5044;48.652;9.250;2022-12-29T09:07:11;9.20;99.90
10010;DHT22;5044;48.652;9.250;2022-12-29T09:09:54;9.30;99.90
10010;DHT22;5044;48.652;9.250;2022-12-29T09:12:26;9.20;99.90
10010;DHT22;5044;48.652;9.250;2022-12-29T09:15:11;9.20;99.90
10010;DHT22;5044;48.652;9.250;2022-12-29T09:17:59;9.30;99.90
10010;DHT22;5044;48.652;9.250;2022-12-29T09:20:34;9.70;99.90
10010;DHT22;5044;48.652;9.250;2022-12-29T09:23:13;9.40;99.90
10010;DHT22;5044;48.652;9.250;2022-12-29T09:25:43;9.40;99.90
10010;DHT22;5044;48.652;9.250;2022-12-29T09:28:13;9.40;99.90
10010;DHT22;5044;48.652;9.250;2022-12-29T09:30:50;9.40;99.90
10010;DHT22;5044;48.652;9.250;2022-12-29T09:33:30;9.50;99.90
10010;DHT22;5044;48.652;9.250;2022-12-29T09:35:58;9.50;99.90
10010;DHT22;5044;48.652;9.250;2022-12-29T09:38:49;9.50;99.90
10010;DHT22;5044;48.652;9.250;2022-12-29T09:41:36;9.50;99.90
10010;DHT22;5044;48.652;9.250;2022-12-29T09:44:28;9.60;99.90
10010;DHT22;5044;48.652;9.250;2022-12-29T09:47:15;9.60;99.90
10010;DHT22;5044;48.652;9.250;2022-12-29T09:49:53;9.60;99.90
10010;DHT22;5044;48.652;9.250;2022-12-29T09:52:28;9.80;99.90
10010;DHT22;5044;48.652;9.250;2022-12-29T09:55:01;9.70;99.90
10010;DHT22;5044;48.652;9.250;2022-12-29T09:57:42;9.80;99.90
10010;DHT22;5044;48.652;9.250;2022-12-29T10:00:36;9.80;99.90
10010;DHT22;5044;48.652;9.250;2022-12-29T10:03:13;9.90;99.90
10010;DHT22;5044;48.652;9.250;2022-12-29T10:06:00;9.90;99.90
10010;DHT22;5044;48.652;9.250;2022-12-29T10:08:54;10.00;99.90
10010;DHT22;5044;48.652;9.250;2022-12-29T10:11:42;10.00;99.90
10010;DHT22;5044;48.652;9.250;2022-12-29T10:14:38;10.00;99.90
10010;DHT22;5044;48.652;9.250;2022-12-29T10:17:21;10.00;99.90
10010;DHT22;5044;48.652;9.250;2022-12-29T10:20:22;10.10;99.90
10010;DHT22;5044;48.652;9.250;2022-12-29T10:23:36;10.20;99.90
10010;DHT22;5044;48.652;9.250;2022-12-29T10:26:20;10.10;99.90
10010;DHT22;5044;48.652;9.250;2022-12-29T10:29:08;10.20;99.90
10010;DHT22;5044;48.652;9.250;2022-12-29T10:31:59;10.30;99.90
10010;DHT22;5044;48.652;9.250;2022-12-29T10:34:46;10.30;99.90
10010;DHT22;5044;48.652;9.250;2022-12-29T10:37:27;10.30;99.90
10010;DHT22;5044;48.652;9.250;2022-12-29T10:40:25;10.30;99.90
10010;DHT22;5044;48.652;9.250;2022-12-29T10:43:00;10.40;99.90
10010;DHT22;5044;48.652;9.250;2022-12-29T10:45:36;10.30;99.90
10010;DHT22;5044;48.652;9.250;2022-12-29T10:48:08;10.50;99.90
10010;DHT22;5044;48.652;9.250;2022-12-29T10:50:43;10.40;99.90
10010;DHT22;5044;48.652;9.250;2022-12-29T10:53:22;10.40;99.90
10010;DHT22;5044;48.652;9.250;2022-12-29T10:56:10;10.50;99.90
10010;DHT22;5044;48.652;9.250;2022-12-29T10:58:56;10.50;99.90
10010;DHT22;5044;48.652;9.250;2022-12-29T11:01:36;10.50;99.90
10010;DHT22;5044;48.652;9.250;2022-12-29T11:04:12;10.50;99.90
10010;DHT22;5044;48.652;9.250;2022-12-29T11:06:53;10.50;99.90
10010;DHT22;5044;48.652;9.250;2022-12-29T11:10:21;10.50;99.90
10010;DHT22;5044;48.652;9.250;2022-12-29T11:13:03;10.50;99.90
10010;DHT22;5044;48.652;9.250;2022-12-29T11:15:39;10.70;99.90
10010;DHT22;5044;48.652;9.250;2022-12-29T11:18:25;10.70;99.90
10010;DHT22;5044;48.652;9.250;2022-12-29T11:21:23;10.80;99.90
10010;DHT22;5044;48.652;9.250;2022-12-29T11:24:25;10.80;99.90
10010;DHT22;5044;48.652;9.250;2022-12-29T11:27:14;10.70;99.90
10010;DHT22;5044;48.652;9.250;2022-12-29T11:30:27;10.70;99.90
10010;DHT22;5044;48.652;9.250;2022-12-29T11:33:30;10.80;99.90
10010;DHT22;5044;48.652;9.250;2022-12-29T11:36:25;10.80;99.90
10010;DHT22;5044;48.652;9.250;2022-12-29T11:39:34;10.80;99.90
10010;DHT22;5044;48.652;9.250;2022-12-29T11:45:59;10.80;99.90
10010;DHT22;5044;48.652;9.250;2022-12-29T11:48:42;10.80;99.90
10010;DHT22;5044;48.652;9.250;2022-12-29T11:51:44;10.80;99.90
10010;DHT22;5044;48.652;9.250;2022-12-29T11:57:46;10.90;99.90
10010;DHT22;5044;48.652;9.250;2022-12-29T12:00:43;10.90;99.90
10010;DHT22;5044;48.652;9.250;2022-12-29T12:06:07;10.90;99.90
10010;DHT22;5044;48.652;9.250;2022-12-29T12:09:05;10.80;99.90
10010;DHT22;5044;48.652;9.250;2022-12-29T12:11:58;10.80;99.90
10010;DHT22;5044;48.652;9.250;2022-12-29T12:14:36;10.80;99.90
10010;DHT22;5044;48.652;9.250;2022-12-29T12:17:27;10.70;99.90
10010;DHT22;5044;48.652;9.250;2022-12-29T12:20:17;10.80;99.90
10010;DHT22;5044;48.652;9.250;2022-12-29T12:26:20;10.80;99.90
10010;DHT22;5044;48.652;9.250;2022-12-29T12:29:13;10.80;99.90
10010;DHT22;5044;48.652;9.250;2022-12-29T12:32:02;10.80;99.90
10010;DHT22;5044;48.652;9.250;2022-12-29T12:34:49;10.80;99.90
10010;DHT22;5044;48.652;9.250;2022-12-29T12:37:35;10.90;99.90
10010;DHT22;5044;48.652;9.250;2022-12-29T12:40:49;11.00;99.90
10010;DHT22;5044;48.652;9.250;2022-12-29T12:47:06;11.30;99.90
10010;DHT22;5044;48.652;9.250;2022-12-29T12:50:09;11.30;99.90
10010;DHT22;5044;48.652;9.250;2022-12-29T12:53:40;11.30;99.90
10010;DHT22;5044;48.652;9.250;2022-12-29T13:04:32;11.30;99.90
10010;DHT22;5044;48.652;9.250;2022-12-29T13:11:10;11.20;99.90
10010;DHT22;5044;48.652;9.250;2022-12-29T13:14:35;11.20;99.90
10010;DHT22;5044;48.652;9.250;2022-12-29T13:17:32;11.30;99.90
10010;DHT22;5044;48.652;9.250;2022-12-29T16:17:33;9.90;99.90
10010;DHT22;5044;48.652;9.250;2022-12-29T16:20:40;9.90;99.90
10010;DHT22;5044;48.652;9.250;2022-12-29T16:23:47;9.90;99.90
10010;DHT22;5044;48.652;9.250;2022-12-29T16:27:06;9.90;99.90
10010;DHT22;5044;48.652;9.250;2022-12-29T16:37:02;10.00;99.90
10010;DHT22;5044;48.652;9.250;2022-12-29T16:46:22;10.10;99.90
10010;DHT22;5044;48.652;9.250;2022-12-29T16:59:32;10.00;99.90
10010;DHT22;5044;48.652;9.250;2022-12-29T17:02:46;10.00;99.90
10010;DHT22;5044;48.652;9.250;2022-12-29T17:05:19;10.00;99.90
10010;DHT22;5044;48.652;9.250;2022-12-29T17:08:17;10.00;99.90
10010;DHT22;5044;48.652;9.250;2022-12-29T17:15:13;9.90;99.90
10010;DHT22;5044;48.652;9.250;2022-12-29T17:18:19;9.90;99.90
10010;DHT22;5044;48.652;9.250;2022-12-29T17:27:45;9.70;99.90
10010;DHT22;5044;48.652;9.250;2022-12-29T17:31:07;9.70;99.90
10010;DHT22;5044;48.652;9.250;2022-12-29T17:34:00;9.60;99.90
10010;DHT22;5044;48.652;9.250;2022-12-29T17:37:35;9.60;99.90
10010;DHT22;5044;48.652;9.250;2022-12-29T17:40:26;9.40;99.90
10010;DHT22;5044;48.652;9.250;2022-12-29T17:55:30;9.10;99.90
10010;DHT22;5044;48.652;9.250;2022-12-29T17:57:57;9.10;99.90
10010;DHT22;5044;48.652;9.250;2022-12-29T18:00:25;9.10;99.90
10010;DHT22;5044;48.652;9.250;2022-12-29T18:02:53;9.00;99.90
10010;DHT22;5044;48.652;9.250;2022-12-29T18:05:23;9.00;99.90
10010;DHT22;5044;48.652;9.250;2022-12-29T18:07:57;9.00;99.90
10010;DHT22;5044;48.652;9.250;2022-12-29T18:10:27;9.00;99.90
10010;DHT22;5044;48.652;9.250;2022-12-29T18:13:00;9.00;99.90
10010;DHT22;5044;48.652;9.250;2022-12-29T18:15:30;9.00;99.90
10010;DHT22;5044;48.652;9.250;2022-12-29T18:18:00;8.90;99.90
10010;DHT22;5044;48.652;9.250;2022-12-29T18:20:28;8.90;99.90
10010;DHT22;5044;48.652;9.250;2022-12-29T18:22:57;8.90;99.90
10010;DHT22;5044;48.652;9.250;2022-12-29T18:25:29;9.30;99.90
10010;DHT22;5044;48.652;9.250;2022-12-29T18:28:01;8.90;99.90
10010;DHT22;5044;48.652;9.250;2022-12-29T18:30:29;8.80;99.90
10010;DHT22;5044;48.652;9.250;2022-12-29T18:32:58;8.80;99.90
10010;DHT22;5044;48.652;9.250;2022-12-29T18:35:28;8.70;99.90
10010;DHT22;5044;48.652;9.250;2022-12-29T18:37:57;8.50;99.90
10010;DHT22;5044;48.652;9.250;2022-12-29T18:40:24;8.40;99.90
10010;DHT22;5044;48.652;9.250;2022-12-29T18:42:54;8.60;99.90
10010;DHT22;5044;48.652;9.250;2022-12-29T18:45:23;8.30;99.90
10010;DHT22;5044;48.652;9.250;2022-12-29T18:47:51;8.20;99.90
10010;DHT22;5044;48.652;9.250;2022-12-29T18:50:19;8.20;99.90
10010;DHT22;5044;48.652;9.250;2022-12-29T18:52:46;8.20;99.90
10010;DHT22;5044;48.652;9.250;2022-12-29T18:55:15;8.10;99.90
10010;DHT22;5044;48.652;9.250;2022-12-29T18:57:45;8.30;99.90
10010;DHT22;5044;48.652;9.250;2022-12-29T19:00:14;8.20;99.90
10010;DHT22;5044;48.652;9.250;2022-12-29T19:02:45;8.30;99.90
10010;DHT22;5044;48.652;9.250;2022-12-29T19:05:19;8.30;99.90
10010;DHT22;5044;48.652;9.250;2022-12-29T19:07:47;8.30;99.90
10010;DHT22;5044;48.652;9.250;2022-12-29T19:10:19;8.20;99.90
10010;DHT22;5044;48.652;9.250;2022-12-29T19:12:47;8.20;99.90
10010;DHT22;5044;48.652;9.250;2022-12-29T19:15:24;8.20;99.90
10010;DHT22;5044;48.652;9.250;2022-12-29T19:17:54;8.20;99.90
10010;DHT22;5044;48.652;9.250;2022-12-29T19:20:27;8.10;99.90
10010;DHT22;5044;48.652;9.250;2022-12-29T19:22:55;8.40;99.90
10010;DHT22;5044;48.652;9.250;2022-12-29T19:25:23;8.30;99.90
10010;DHT22;5044;48.652;9.250;2022-12-29T19:27:53;8.10;99.90
10010;DHT22;5044;48.652;9.250;2022-12-29T19:30:20;8.10;99.90
10010;DHT22;5044;48.652;9.250;2022-12-29T19:32:49;8.10;99.90
10010;DHT22;5044;48.652;9.250;2022-12-29T19:35:19;8.30;99.90
10010;DHT22;5044;48.652;9.250;2022-12-29T19:37:47;8.00;99.90
10010;DHT22;5044;48.652;9.250;2022-12-29T19:40:15;8.10;99.90
10010;DHT22;5044;48.652;9.250;2022-12-29T19:42:43;8.00;99.90
10010;DHT22;5044;48.652;9.250;2022-12-29T19:45:10;7.90;99.90
10010;DHT22;5044;48.652;9.250;2022-12-29T19:47:37;7.70;99.90
10010;DHT22;5044;48.652;9.250;2022-12-29T19:50:06;7.70;99.90
10010;DHT22;5044;48.652;9.250;2022-12-29T19:52:39;7.70;99.90
10010;DHT22;5044;48.652;9.250;2022-12-29T19:55:12;7.60;99.90
10010;DHT22;5044;48.652;9.250;2022-12-29T19:57:47;7.60;99.90
10010;DHT22;5044;48.652;9.250;2022-12-29T20:00:14;7.60;99.90
10010;DHT22;5044;48.652;9.250;2022-12-29T20:02:42;7.60;99.90
10010;DHT22;5044;48.652;9.250;2022-12-29T20:05:11;7.50;99.90
10010;DHT22;5044;48.652;9.250;2022-12-29T20:07:40;7.80;99.90
10010;DHT22;5044;48.652;9.250;2022-12-29T20:10:08;7.50;99.90
10010;DHT22;5044;48.652;9.250;2022-12-29T20:12:38;7.50;99.90
10010;DHT22;5044;48.652;9.250;2022-12-29T20:15:07;7.40;99.90
10010;DHT22;5044;48.652;9.250;2022-12-29T20:17:34;7.40;99.90
10010;DHT22;5044;48.652;9.250;2022-12-29T20:20:01;7.30;99.90
10010;DHT22;5044;48.652;9.250;2022-12-29T20:22:28;7.40;99.90
10010;DHT22;5044;48.652;9.250;2022-12-29T20:24:57;7.40;99.90
10010;DHT22;5044;48.652;9.250;2022-12-29T20:27:24;7.40;99.90
10010;DHT22;5044;48.652;9.250;2022-12-29T20:29:51;7.30;99.90
10010;DHT22;5044;48.652;9.250;2022-12-29T20:32:21;7.40;99.90
10010;DHT22;5044;48.652;9.250;2022-12-29T20:34:50;7.20;99.90
10010;DHT22;5044;48.652;9.250;2022-12-29T20:37:18;7.20;99.90
10010;DHT22;5044;48.652;9.250;2022-12-29T20:39:44;7.30;99.90
10010;DHT22;5044;48.652;9.250;2022-12-29T20:42:29;7.20;99.90
10010;DHT22;5044;48.652;9.250;2022-12-29T20:45:01;7.20;99.90
10010;DHT22;5044;48.652;9.250;2022-12-29T20:47:50;7.00;99.90
10010;DHT22;5044;48.652;9.250;2022-12-29T20:50:20;7.10;99.90
10010;DHT22;5044;48.652;9.250;2022-12-29T20:53:09;7.40;99.90
10010;DHT22;5044;48.652;9.250;2022-12-29T20:56:05;7.00;99.90
10010;DHT22;5044;48.652;9.250;2022-12-29T20:59:31;7.00;99.90
10010;DHT22;5044;48.652;9.250;2022-12-29T21:02:34;7.00;99.90
10010;DHT22;5044;48.652;9.250;2022-12-29T21:05:02;7.00;99.90
10010;DHT22;5044;48.652;9.250;2022-12-29T21:07:29;7.00;99.90
10010;DHT22;5044;48.652;9.250;2022-12-29T21:09:56;7.40;99.90
10010;DHT22;5044;48.652;9.250;2022-12-29T21:12:23;7.00;99.90
10010;DHT22;5044;48.652;9.250;2022-12-29T21:14:51;7.10;99.90
10010;DHT22;5044;48.652;9.250;2022-12-29T21:17:21;6.90;99.90
10010;DHT22;5044;48.652;9.250;2022-12-29T21:19:53;6.80;99.90
10010;DHT22;5044;48.652;9.250;2022-12-29T21:22:23;6.90;99.90
10010;DHT22;5044;48.652;9.250;2022-12-29T21:24:51;6.90;99.90
10010;DHT22;5044;48.652;9.250;2022-12-29T21:27:22;6.70;99.90
10010;DHT22;5044;48.652;9.250;2022-12-29T21:30:07;7.10;99.90
